createdAt,value
2018-02-24T00:02:21.603Z,-3.00
2018-02-24T00:04:49.028Z,-3.10
2018-02-24T00:07:17.476Z,-3.10
2018-02-24T00:09:45.680Z,-3.10
2018-02-24T00:12:13.592Z,-3.10
2018-02-24T00:14:41.034Z,-3.10
2018-02-24T00:17:08.479Z,-3.10
2018-02-24T00:19:35.911Z,-3.20
2018-02-24T00:22:03.381Z,-3.20
2018-02-24T00:24:30.818Z,-3.30
2018-02-24T00:26:58.387Z,-3.30
2018-02-24T00:29:25.920Z,-3.30
2018-02-24T00:31:54.125Z,-3.30
2018-02-24T00:34:21.582Z,-3.30
2018-02-24T00:36:49.049Z,-3.30
2018-02-24T00:39:17.280Z,-3.30
2018-02-24T00:41:46.025Z,-3.40
2018-02-24T00:44:13.467Z,-3.40
2018-02-24T00:46:40.924Z,-3.40
2018-02-24T00:49:08.572Z,-3.40
2018-02-24T00:51:36.016Z,-3.40
2018-02-24T00:54:04.242Z,-3.40
2018-02-24T00:56:31.721Z,-3.40
2018-02-24T00:58:59.152Z,-3.40
2018-02-24T01:01:26.686Z,-3.40
2018-02-24T01:03:54.123Z,-3.50
2018-02-24T01:06:22.347Z,-3.50
2018-02-24T01:08:50.562Z,-3.50
2018-02-24T01:11:18.792Z,-3.50
2018-02-24T01:13:46.224Z,-3.50
2018-02-24T01:16:13.884Z,-3.50
2018-02-24T01:18:41.324Z,-3.60
2018-02-24T01:21:09.589Z,-3.60
2018-02-24T01:23:37.008Z,-3.60
2018-02-24T01:26:20.353Z,-3.60
2018-02-24T01:28:47.798Z,-3.60
2018-02-24T01:31:20.691Z,-3.60
2018-02-24T01:33:48.138Z,-3.60
2018-02-24T01:36:15.571Z,-3.70
2018-02-24T01:38:43.032Z,-3.70
2018-02-24T01:41:10.501Z,-3.70
2018-02-24T01:43:37.970Z,-3.70
2018-02-24T01:46:05.404Z,-3.70
2018-02-24T01:48:33.768Z,-3.70
2018-02-24T01:51:07.344Z,-3.70
2018-02-24T01:53:35.543Z,-3.60
2018-02-24T01:56:03.005Z,-3.70
2018-02-24T01:58:30.506Z,-3.60
2018-02-24T02:00:57.949Z,-3.60
2018-02-24T02:03:25.387Z,-3.70
2018-02-24T02:05:52.917Z,-3.60
2018-02-24T02:08:21.140Z,-3.60
2018-02-24T02:10:48.584Z,-3.70
2018-02-24T02:13:16.049Z,-3.70
2018-02-24T02:15:43.517Z,-3.60
2018-02-24T02:18:10.962Z,-3.60
2018-02-24T02:20:38.472Z,-3.70
2018-02-24T02:23:06.678Z,-3.70
2018-02-24T02:25:34.152Z,-3.70
2018-02-24T02:28:01.611Z,-3.70
2018-02-24T02:30:29.133Z,-3.70
2018-02-24T02:32:57.341Z,-3.70
2018-02-24T02:35:24.892Z,-3.70
2018-02-24T02:37:52.336Z,-3.70
2018-02-24T02:40:19.828Z,-3.70
2018-02-24T02:42:47.270Z,-3.70
2018-02-24T02:45:16.753Z,-3.70
2018-02-24T02:47:44.197Z,-3.70
2018-02-24T02:50:12.403Z,-3.80
2018-02-24T02:52:39.920Z,-3.80
2018-02-24T02:55:08.157Z,-3.80
2018-02-24T02:57:35.593Z,-3.80
2018-02-24T03:00:03.146Z,-3.80
2018-02-24T03:02:30.617Z,-3.80
2018-02-24T03:04:58.065Z,-3.80
2018-02-24T03:07:25.754Z,-3.80
2018-02-24T03:09:53.201Z,-3.80
2018-02-24T03:12:21.608Z,-3.80
2018-02-24T03:14:49.072Z,-3.90
2018-02-24T03:17:16.533Z,-3.90
2018-02-24T03:19:43.975Z,-3.90
2018-02-24T03:22:11.421Z,-3.90
2018-02-24T03:24:39.041Z,-3.90
2018-02-24T03:27:06.481Z,-4.00
2018-02-24T03:29:34.680Z,-4.00
2018-02-24T03:32:02.153Z,-4.00
2018-02-24T03:34:29.617Z,-4.00
2018-02-24T03:36:57.052Z,-4.00
2018-02-24T03:39:24.651Z,-4.00
2018-02-24T03:41:52.140Z,-4.00
2018-02-24T03:44:20.353Z,-4.00
2018-02-24T03:46:50.852Z,-4.00
2018-02-24T03:49:19.169Z,-4.00
2018-02-24T03:51:47.403Z,-4.00
2018-02-24T03:54:15.601Z,-4.00
2018-02-24T03:56:43.197Z,-4.10
2018-02-24T03:59:10.637Z,-4.10
2018-02-24T04:01:38.861Z,-4.10
2018-02-24T04:04:06.292Z,-4.10
2018-02-24T04:06:33.757Z,-4.10
2018-02-24T04:09:01.201Z,-4.10
2018-02-24T04:11:28.636Z,-4.10
2018-02-24T04:13:56.411Z,-4.20
2018-02-24T04:16:23.872Z,-4.20
2018-02-24T04:18:51.321Z,-4.10
2018-02-24T04:21:18.756Z,-4.20
2018-02-24T04:23:46.212Z,-4.10
2018-02-24T04:26:13.649Z,-4.10
2018-02-24T04:28:41.959Z,-4.10
2018-02-24T04:31:09.381Z,-4.10
2018-02-24T04:33:37.623Z,-4.10
2018-02-24T04:36:17.144Z,-4.10
2018-02-24T04:38:44.645Z,-4.10
2018-02-24T04:41:12.072Z,-4.10
2018-02-24T04:43:39.509Z,-4.10
2018-02-24T04:46:07.173Z,-4.10
2018-02-24T04:48:34.616Z,-4.10
2018-02-24T04:51:02.077Z,-4.10
2018-02-24T04:53:29.516Z,-4.10
2018-02-24T04:55:57.762Z,-4.10
2018-02-24T04:58:25.205Z,-4.10
2018-02-24T05:00:52.664Z,-4.10
2018-02-24T05:03:20.181Z,-4.10
2018-02-24T05:05:47.713Z,-4.10
2018-02-24T05:08:15.924Z,-4.20
2018-02-24T05:10:43.365Z,-4.10
2018-02-24T05:13:10.829Z,-4.20
2018-02-24T05:15:38.397Z,-4.20
2018-02-24T05:18:05.856Z,-4.20
2018-02-24T05:20:33.294Z,-4.20
2018-02-24T05:23:01.524Z,-4.20
2018-02-24T05:25:28.961Z,-4.20
2018-02-24T05:27:56.442Z,-4.30
2018-02-24T05:30:23.885Z,-4.30
2018-02-24T05:32:51.529Z,-4.20
2018-02-24T05:35:18.961Z,-4.20
2018-02-24T05:37:46.400Z,-4.30
2018-02-24T05:40:14.641Z,-4.30
2018-02-24T05:42:42.076Z,-4.30
2018-02-24T05:45:09.513Z,-4.30
2018-02-24T05:47:36.971Z,-4.30
2018-02-24T05:50:09.415Z,-4.30
2018-02-24T05:52:37.620Z,-4.30
2018-02-24T05:55:05.420Z,-4.40
2018-02-24T05:57:32.883Z,-4.30
2018-02-24T06:00:00.304Z,-4.30
2018-02-24T06:02:27.773Z,-4.30
2018-02-24T06:04:55.369Z,-4.40
2018-02-24T06:07:32.876Z,-4.30
2018-02-24T06:10:00.316Z,-4.30
2018-02-24T06:12:27.756Z,-4.30
2018-02-24T06:14:55.199Z,-4.30
2018-02-24T06:17:22.756Z,-4.30
2018-02-24T06:19:50.192Z,-4.30
2018-02-24T06:22:18.388Z,-4.30
2018-02-24T06:24:54.968Z,-4.30
2018-02-24T06:27:22.434Z,-4.30
2018-02-24T06:29:51.166Z,-4.30
2018-02-24T06:32:19.409Z,-4.30
2018-02-24T06:34:46.849Z,-4.30
2018-02-24T06:37:17.089Z,-4.30
2018-02-24T06:39:44.520Z,-4.30
2018-02-24T06:42:11.975Z,-4.20
2018-02-24T06:44:39.439Z,-4.20
2018-02-24T06:47:06.895Z,-4.20
2018-02-24T06:49:35.673Z,-4.10
2018-02-24T06:52:03.115Z,-4.10
2018-02-24T06:54:30.720Z,-4.00
2018-02-24T06:57:04.277Z,-4.00
2018-02-24T06:59:31.696Z,-3.90
2018-02-24T07:01:59.138Z,-3.80
2018-02-24T07:04:26.577Z,-3.80
2018-02-24T07:06:54.046Z,-3.70
2018-02-24T07:09:21.728Z,-3.60
2018-02-24T07:11:56.836Z,-3.60
2018-02-24T07:14:24.312Z,-3.50
2018-02-24T07:16:51.748Z,-3.40
2018-02-24T07:19:21.689Z,-3.30
2018-02-24T07:21:49.133Z,-3.20
2018-02-24T07:24:16.997Z,-3.10
2018-02-24T07:26:44.444Z,-3.10
2018-02-24T07:29:11.894Z,-3.00
2018-02-24T07:31:39.362Z,-2.90
2018-02-24T07:34:06.793Z,-2.80
2018-02-24T07:36:34.594Z,-2.80
2018-02-24T07:39:02.133Z,-2.70
2018-02-24T07:41:29.565Z,-2.60
2018-02-24T07:43:57.889Z,-2.40
2018-02-24T07:46:25.329Z,-2.40
2018-02-24T07:48:52.799Z,-2.30
2018-02-24T07:51:20.292Z,-2.20
2018-02-24T07:53:47.860Z,-2.10
2018-02-24T07:56:15.293Z,-2.00
2018-02-24T07:58:42.745Z,-1.90
2018-02-24T08:01:10.294Z,-1.90
2018-02-24T08:03:37.811Z,-1.80
2018-02-24T08:06:06.968Z,-1.60
2018-02-24T08:08:34.434Z,-1.60
2018-02-24T08:11:01.930Z,-1.50
2018-02-24T08:13:31.208Z,-1.40
2018-02-24T08:15:59.442Z,-1.30
2018-02-24T08:18:26.878Z,-1.30
2018-02-24T08:20:54.344Z,-1.20
2018-02-24T08:23:21.784Z,-1.10
2018-02-24T08:25:49.315Z,-1.00
2018-02-24T08:28:17.524Z,-0.90
2018-02-24T08:30:45.153Z,-0.90
2018-02-24T08:33:13.359Z,-0.70
2018-02-24T08:35:40.832Z,-0.70
2018-02-24T08:38:08.289Z,-0.70
2018-02-24T08:40:36.718Z,-0.50
2018-02-24T08:43:04.199Z,-0.50
2018-02-24T08:45:32.623Z,-0.30
2018-02-24T08:48:00.069Z,-0.30
2018-02-24T08:50:27.544Z,-0.20
2018-02-24T08:52:54.991Z,-0.20
2018-02-24T08:55:23.422Z,-0.10
2018-02-24T08:57:52.596Z,0.00
2018-02-24T09:00:20.043Z,0.00
2018-02-24T09:02:47.531Z,0.00
2018-02-24T09:05:15.733Z,0.20
2018-02-24T09:07:43.199Z,0.20
2018-02-24T09:10:10.656Z,0.20
2018-02-24T09:12:38.092Z,0.30
2018-02-24T09:15:05.557Z,0.30
2018-02-24T09:17:33.057Z,0.40
2018-02-24T09:20:00.691Z,0.50
2018-02-24T09:22:28.155Z,0.50
2018-02-24T09:24:58.654Z,0.60
2018-02-24T09:27:26.199Z,0.70
2018-02-24T09:29:57.497Z,0.90
2018-02-24T09:32:24.916Z,0.90
2018-02-24T09:34:52.401Z,1.00
2018-02-24T09:37:20.048Z,1.00
2018-02-24T09:39:47.832Z,1.10
2018-02-24T09:42:27.581Z,1.20
2018-02-24T09:44:55.456Z,1.30
2018-02-24T09:47:22.893Z,1.40
2018-02-24T09:49:52.224Z,1.40
2018-02-24T09:52:19.736Z,1.40
2018-02-24T09:54:47.176Z,1.50
2018-02-24T09:57:21.502Z,1.60
2018-02-24T09:59:49.728Z,1.60
2018-02-24T10:02:17.164Z,1.60
2018-02-24T10:04:44.668Z,1.70
2018-02-24T10:07:12.105Z,1.80
2018-02-24T10:09:39.651Z,1.90
2018-02-24T10:12:10.127Z,1.90
2018-02-24T10:14:38.359Z,2.10
2018-02-24T10:17:07.742Z,2.10
2018-02-24T10:19:35.243Z,2.20
2018-02-24T10:22:02.692Z,2.30
2018-02-24T10:24:30.150Z,2.30
2018-02-24T10:26:59.014Z,2.40
2018-02-24T10:29:26.486Z,2.50
2018-02-24T10:31:53.939Z,2.60
2018-02-24T10:34:22.935Z,2.60
2018-02-24T10:36:51.346Z,2.60
2018-02-24T10:39:18.780Z,2.70
2018-02-24T10:41:46.689Z,2.70
2018-02-24T10:44:14.306Z,2.80
2018-02-24T10:46:41.748Z,2.70
2018-02-24T10:49:13.848Z,2.80
2018-02-24T10:51:42.249Z,2.80
2018-02-24T10:54:10.505Z,2.80
2018-02-24T10:56:37.938Z,2.80
2018-02-24T10:59:05.377Z,2.80
2018-02-24T11:01:32.913Z,2.80
2018-02-24T11:04:00.379Z,2.80
2018-02-24T11:06:27.823Z,2.90
2018-02-24T11:08:56.057Z,3.00
2018-02-24T11:11:23.505Z,3.00
2018-02-24T11:13:51.041Z,3.10
2018-02-24T11:16:18.451Z,3.20
2018-02-24T11:18:46.667Z,3.20
2018-02-24T11:21:14.118Z,3.20
2018-02-24T11:23:41.589Z,3.20
2018-02-24T11:26:09.024Z,3.20
2018-02-24T11:28:36.825Z,3.20
2018-02-24T11:31:06.886Z,3.20
2018-02-24T11:33:35.107Z,3.20
2018-02-24T11:36:02.572Z,3.10
2018-02-24T11:38:29.993Z,3.20
2018-02-24T11:40:58.220Z,3.30
2018-02-24T11:43:25.658Z,3.20
2018-02-24T11:45:53.213Z,3.30
2018-02-24T11:48:21.410Z,3.40
2018-02-24T11:50:48.872Z,3.40
2018-02-24T11:53:16.381Z,3.50
2018-02-24T11:55:45.535Z,3.50
2018-02-24T11:58:13.005Z,3.50
2018-02-24T12:00:40.445Z,3.60
2018-02-24T12:03:07.943Z,3.70
2018-02-24T12:05:36.132Z,3.80
2018-02-24T12:08:03.603Z,3.80
2018-02-24T12:10:31.053Z,3.80
2018-02-24T12:12:59.265Z,3.80
2018-02-24T12:15:26.704Z,3.80
2018-02-24T12:17:55.269Z,3.80
2018-02-24T12:20:22.704Z,3.80
2018-02-24T12:22:50.934Z,3.80
2018-02-24T12:25:19.624Z,3.80
2018-02-24T12:27:47.073Z,3.80
2018-02-24T12:30:14.578Z,3.80
2018-02-24T12:32:42.842Z,3.80
2018-02-24T12:35:11.405Z,3.80
2018-02-24T12:37:39.610Z,3.80
2018-02-24T12:40:07.811Z,3.80
2018-02-24T12:42:35.608Z,3.70
2018-02-24T12:45:03.047Z,3.80
2018-02-24T12:47:30.476Z,3.80
2018-02-24T12:49:57.934Z,3.70
2018-02-24T12:52:27.098Z,3.70
2018-02-24T12:54:54.542Z,3.70
2018-02-24T12:57:21.988Z,3.70
2018-02-24T12:59:49.493Z,3.70
2018-02-24T13:02:20.717Z,3.60
2018-02-24T13:04:48.149Z,3.60
2018-02-24T13:07:15.617Z,3.70
2018-02-24T13:09:43.208Z,3.80
2018-02-24T13:12:18.892Z,3.80
2018-02-24T13:14:46.349Z,3.80
2018-02-24T13:17:13.775Z,3.80
2018-02-24T13:19:42.625Z,3.70
2018-02-24T13:22:10.063Z,3.70
2018-02-24T13:24:37.562Z,3.70
2018-02-24T13:27:06.973Z,3.70
2018-02-24T13:29:34.449Z,3.70
2018-02-24T13:32:02.741Z,3.70
2018-02-24T13:34:30.188Z,3.70
2018-02-24T13:36:58.413Z,3.80
2018-02-24T13:39:25.849Z,3.80
2018-02-24T13:41:53.777Z,3.80
2018-02-24T13:44:21.982Z,3.70
2018-02-24T13:46:49.417Z,3.70
2018-02-24T13:49:17.648Z,3.70
2018-02-24T13:51:46.269Z,3.70
2018-02-24T13:54:14.484Z,3.40
2018-02-24T13:56:41.954Z,3.40
2018-02-24T13:59:09.501Z,3.30
2018-02-24T14:01:36.936Z,3.20
2018-02-24T14:04:04.369Z,3.10
2018-02-24T14:06:31.834Z,3.00
2018-02-24T14:09:00.169Z,2.70
2018-02-24T14:11:27.597Z,2.70
2018-02-24T14:13:55.048Z,2.70
2018-02-24T14:16:23.912Z,2.60
2018-02-24T14:18:51.346Z,2.50
2018-02-24T14:21:18.806Z,2.50
2018-02-24T14:23:46.241Z,2.40
2018-02-24T14:26:13.683Z,2.40
2018-02-24T14:28:41.261Z,2.40
2018-02-24T14:31:08.758Z,2.50
2018-02-24T14:33:36.321Z,2.50
2018-02-24T14:36:04.512Z,2.40
2018-02-24T14:38:32.742Z,2.30
2018-02-24T14:41:00.206Z,2.30
2018-02-24T14:43:27.629Z,2.30
2018-02-24T14:45:55.104Z,2.20
2018-02-24T14:48:22.553Z,2.10
2018-02-24T14:50:50.015Z,2.10
2018-02-24T14:53:18.229Z,1.90
2018-02-24T14:55:45.657Z,1.90
2018-02-24T14:58:13.142Z,1.90
2018-02-24T15:00:40.577Z,1.90
2018-02-24T15:03:08.015Z,1.90
2018-02-24T15:05:35.532Z,1.90
2018-02-24T15:08:03.774Z,1.70
2018-02-24T15:10:31.201Z,1.70
2018-02-24T15:12:58.664Z,1.70
2018-02-24T15:15:26.114Z,1.60
2018-02-24T15:17:53.700Z,1.50
2018-02-24T15:20:21.140Z,1.40
2018-02-24T15:22:48.572Z,1.30
2018-02-24T15:25:16.469Z,1.30
2018-02-24T15:27:52.741Z,1.30
2018-02-24T15:30:20.349Z,1.20
2018-02-24T15:32:48.561Z,1.00
2018-02-24T15:35:15.988Z,1.00
2018-02-24T15:37:43.534Z,1.00
2018-02-24T15:40:11.738Z,0.90
2018-02-24T15:42:39.186Z,0.80
2018-02-24T15:45:06.627Z,0.80
2018-02-24T15:47:36.816Z,0.70
2018-02-24T15:50:04.260Z,0.70
2018-02-24T15:52:32.124Z,0.70
2018-02-24T15:54:59.556Z,0.60
2018-02-24T15:57:27.007Z,0.60
2018-02-24T15:59:54.471Z,0.50
2018-02-24T16:02:21.941Z,0.50
2018-02-24T16:04:50.147Z,0.40
2018-02-24T16:07:17.585Z,0.40
2018-02-24T16:09:45.019Z,0.40
2018-02-24T16:12:12.649Z,0.40
2018-02-24T16:14:41.008Z,0.30
2018-02-24T16:17:08.461Z,0.30
2018-02-24T16:19:35.894Z,0.20
2018-02-24T16:22:03.380Z,0.10
2018-02-24T16:24:30.828Z,0.10
2018-02-24T16:26:58.681Z,0.10
2018-02-24T16:29:26.119Z,0.10
2018-02-24T16:31:53.589Z,0.00
2018-02-24T16:34:21.038Z,0.00
2018-02-24T16:36:51.684Z,0.00
2018-02-24T16:39:19.125Z,0.00
2018-02-24T16:41:46.581Z,0.00
2018-02-24T16:44:14.156Z,-0.10
2018-02-24T16:46:41.600Z,-0.10
2018-02-24T16:49:09.093Z,-0.10
2018-02-24T16:51:36.537Z,-0.10
2018-02-24T16:54:04.129Z,-0.20
2018-02-24T16:56:31.605Z,-0.20
2018-02-24T16:58:59.805Z,-0.30
2018-02-24T17:01:28.018Z,-0.30
2018-02-24T17:03:55.541Z,-0.30
2018-02-24T17:06:22.991Z,-0.30
2018-02-24T17:08:51.218Z,-0.40
2018-02-24T17:11:18.657Z,-0.40
2018-02-24T17:13:46.117Z,-0.40
2018-02-24T17:16:13.557Z,-0.50
2018-02-24T17:18:41.069Z,-0.50
2018-02-24T17:21:09.303Z,-0.50
2018-02-24T17:23:36.743Z,-0.50
2018-02-24T17:26:04.204Z,-0.50
2018-02-24T17:28:31.714Z,-0.60
2018-02-24T17:31:00.093Z,-0.60
2018-02-24T17:33:28.456Z,-0.70
2018-02-24T17:35:55.885Z,-0.70
2018-02-24T17:38:23.360Z,-0.70
2018-02-24T17:40:50.785Z,-0.70
2018-02-24T17:43:18.253Z,-0.70
2018-02-24T17:45:45.697Z,-0.70
2018-02-24T17:48:13.233Z,-0.70
2018-02-24T17:50:40.684Z,-0.70
2018-02-24T17:53:08.901Z,-0.80
2018-02-24T17:55:36.344Z,-0.80
2018-02-24T17:58:03.804Z,-0.80
2018-02-24T18:00:31.238Z,-0.80
2018-02-24T18:02:59.569Z,-0.90
2018-02-24T18:05:27.077Z,-0.90
2018-02-24T18:07:55.280Z,-0.80
2018-02-24T18:10:22.736Z,-0.90
2018-02-24T18:12:50.211Z,-0.90
2018-02-24T18:15:18.625Z,-0.90
2018-02-24T18:17:46.957Z,-1.00
2018-02-24T18:20:14.394Z,-1.00
2018-02-24T18:22:41.865Z,-1.00
2018-02-24T18:25:09.417Z,-1.00
2018-02-24T18:27:37.850Z,-1.00
2018-02-24T18:30:05.521Z,-1.00
2018-02-24T18:32:33.812Z,-1.00
2018-02-24T18:35:01.192Z,-1.00
2018-02-24T18:37:28.893Z,-1.10
2018-02-24T18:39:56.338Z,-1.10
2018-02-24T18:42:23.772Z,-1.10
2018-02-24T18:44:51.272Z,-1.10
2018-02-24T18:47:18.735Z,-1.10
2018-02-24T18:49:55.161Z,-1.20
2018-02-24T18:52:22.642Z,-1.20
2018-02-24T18:54:50.075Z,-1.20
2018-02-24T18:57:17.559Z,-1.20
2018-02-24T18:59:57.778Z,-1.20
2018-02-24T19:02:25.249Z,-1.30
2018-02-24T19:04:52.687Z,-1.30
2018-02-24T19:07:20.200Z,-1.30
2018-02-24T19:09:47.636Z,-1.30
2018-02-24T19:12:15.108Z,-1.30
2018-02-24T19:14:42.539Z,-1.40
2018-02-24T19:17:10.045Z,-1.30
2018-02-24T19:19:37.502Z,-1.40
2018-02-24T19:22:04.942Z,-1.40
2018-02-24T19:24:32.430Z,-1.40
2018-02-24T19:27:09.745Z,-1.40
2018-02-24T19:29:37.188Z,-1.40
2018-02-24T19:32:05.471Z,-1.50
2018-02-24T19:34:34.826Z,-1.50
2018-02-24T19:37:03.028Z,-1.50
2018-02-24T19:39:31.336Z,-1.50
2018-02-24T19:41:58.777Z,-1.50
2018-02-24T19:44:26.243Z,-1.50
2018-02-24T19:46:54.091Z,-1.50
2018-02-24T19:49:21.523Z,-1.50
2018-02-24T19:51:53.949Z,-1.50
2018-02-24T19:54:21.390Z,-1.50
2018-02-24T19:56:50.336Z,-1.60
2018-02-24T19:59:17.789Z,-1.60
2018-02-24T20:01:45.653Z,-1.60
2018-02-24T20:04:13.094Z,-1.60
2018-02-24T20:06:40.557Z,-1.60
2018-02-24T20:09:08.030Z,-1.70
2018-02-24T20:11:36.808Z,-1.70
2018-02-24T20:14:04.257Z,-1.70
2018-02-24T20:16:39.697Z,-1.70
2018-02-24T20:19:07.125Z,-1.70
2018-02-24T20:21:34.565Z,-1.70
2018-02-24T20:24:02.795Z,-1.80
2018-02-24T20:26:30.231Z,-1.80
2018-02-24T20:28:57.801Z,-1.80
2018-02-24T20:31:25.245Z,-1.80
2018-02-24T20:33:52.718Z,-1.80
2018-02-24T20:36:20.168Z,-1.90
2018-02-24T20:38:47.630Z,-1.90
2018-02-24T20:41:16.002Z,-1.90
2018-02-24T20:43:43.437Z,-1.90
2018-02-24T20:46:10.909Z,-2.00
2018-02-24T20:48:38.348Z,-2.00
2018-02-24T20:51:06.577Z,-2.00
2018-02-24T20:53:34.110Z,-2.00
2018-02-24T20:56:01.674Z,-2.00
2018-02-24T20:58:29.120Z,-2.00
2018-02-24T21:01:02.698Z,-2.00
2018-02-24T21:03:30.901Z,-2.10
2018-02-24T21:05:58.340Z,-2.10
2018-02-24T21:08:25.814Z,-2.10
2018-02-24T21:10:53.443Z,-2.10
2018-02-24T21:13:21.653Z,-2.20
2018-02-24T21:15:49.112Z,-2.20
2018-02-24T21:18:16.585Z,-2.20
2018-02-24T21:20:44.042Z,-2.20
2018-02-24T21:23:11.482Z,-2.20
2018-02-24T21:25:38.949Z,-2.20
2018-02-24T21:28:06.385Z,-2.30
2018-02-24T21:30:34.100Z,-2.30
2018-02-24T21:33:01.536Z,-2.30
2018-02-24T21:35:29.009Z,-2.30
2018-02-24T21:37:56.440Z,-2.30
2018-02-24T21:40:24.877Z,-2.40
2018-02-24T21:42:53.089Z,-2.40
2018-02-24T21:45:20.684Z,-2.40
2018-02-24T21:47:48.116Z,-2.40
2018-02-24T21:50:20.205Z,-2.40
2018-02-24T21:52:47.646Z,-2.40
2018-02-24T21:55:17.287Z,-2.40
2018-02-24T21:57:44.728Z,-2.40
2018-02-24T22:00:12.388Z,-2.40
2018-02-24T22:02:39.829Z,-2.40
2018-02-24T22:05:07.305Z,-2.50
2018-02-24T22:07:34.740Z,-2.50
2018-02-24T22:10:03.170Z,-2.50
2018-02-24T22:12:31.378Z,-2.60
2018-02-24T22:14:58.971Z,-2.60
2018-02-24T22:17:26.409Z,-2.60
2018-02-24T22:19:53.896Z,-2.60
2018-02-24T22:22:21.336Z,-2.70
2018-02-24T22:24:48.780Z,-2.70
2018-02-24T22:27:16.572Z,-2.70
2018-02-24T22:29:44.014Z,-2.70
2018-02-24T22:32:11.451Z,-2.80
2018-02-24T22:34:38.941Z,-2.70
2018-02-24T22:37:06.376Z,-2.80
2018-02-24T22:39:33.845Z,-2.80
2018-02-24T22:42:01.309Z,-2.80
2018-02-24T22:44:28.753Z,-2.90
2018-02-24T22:46:56.216Z,-2.90
2018-02-24T22:49:23.818Z,-2.90
2018-02-24T22:51:52.208Z,-2.90
2018-02-24T22:54:20.422Z,-2.90
2018-02-24T22:56:48.629Z,-2.90
2018-02-24T22:59:16.093Z,-2.90
2018-02-24T23:01:43.526Z,-2.90
2018-02-24T23:04:11.008Z,-2.90
2018-02-24T23:06:38.440Z,-2.90
2018-02-24T23:09:08.888Z,-3.00
2018-02-24T23:11:36.424Z,-3.00
2018-02-24T23:14:03.917Z,-3.00
2018-02-24T23:16:31.348Z,-3.00
2018-02-24T23:18:58.780Z,-3.10
2018-02-24T23:21:26.268Z,-3.10
2018-02-24T23:23:53.713Z,-3.10
2018-02-24T23:26:21.209Z,-3.10
2018-02-24T23:28:49.464Z,-3.20
2018-02-24T23:31:16.899Z,-3.20
2018-02-24T23:33:44.384Z,-3.20
2018-02-24T23:36:11.827Z,-3.20
2018-02-24T23:38:39.265Z,-3.30
2018-02-24T23:41:06.758Z,-3.20
2018-02-24T23:43:34.217Z,-3.30
2018-02-24T23:46:01.661Z,-3.30
2018-02-24T23:48:29.173Z,-3.30
2018-02-24T23:50:56.607Z,-3.40
2018-02-24T23:53:24.825Z,-3.40
2018-02-24T23:55:56.176Z,-3.50
2018-02-24T23:58:23.615Z,-3.40
